Weather at Grasshopper Junction Airfield [CLOSED]

Public forecast

Using degrees Fahrenheit for public forecast. Weather courtesy of forecast.io.

Closest aviation weather report (METAR) to Grasshopper Junction Airfield

Closest report is Kingman Airport, 18.0 nm (33.3 km) ESE. Retrieved 2021/06/23 01:51 UTC (32 minutes ago):

KIGM 230151Z AUTO 27015KT 10SM CLR 34/02 A2996 RMK AO2 PK WND 25027/0059 SLP065 T03390017

Closest aviation forecast (TAF) to Grasshopper Junction Airfield

Closest forecast is Laughlin Bullhead International Airport, 20.8 nm (38.6 km) SW. Retrieved 2021-06-23 00:22 UTC (2 hours ago):

TAF KIFP 222320Z 2300/2324 23014G23KT P6SM SCT150 SCT250 FM230300 17009KT P6SM BKN100 BKN200 FM231100 17008KT P6SM VCSH BKN100 BKN200 FM232000 16012G20KT P6SM VCTS SCT080CB BKN100